createdAt,value
2023-09-08T00:00:02.067Z,6.00
2023-09-08T00:02:30.964Z,5.50
2023-09-08T00:04:57.695Z,6.30
2023-09-08T00:07:24.493Z,5.35
2023-09-08T00:09:51.214Z,5.72
2023-09-08T00:12:18.093Z,5.90
2023-09-08T00:14:45.192Z,6.28
2023-09-08T00:17:14.227Z,6.28
2023-09-08T00:19:42.420Z,5.72
2023-09-08T00:22:09.132Z,6.50
2023-09-08T00:24:36.544Z,5.47
2023-09-08T00:27:03.322Z,5.70
2023-09-08T00:29:29.947Z,6.38
2023-09-08T00:31:57.690Z,6.10
2023-09-08T00:34:24.401Z,5.88
2023-09-08T00:36:52.143Z,6.18
2023-09-08T00:39:18.731Z,6.32
2023-09-08T00:41:45.321Z,6.05
2023-09-08T00:44:12.475Z,5.88
2023-09-08T00:46:40.674Z,5.90
2023-09-08T00:49:09.588Z,5.68
2023-09-08T00:51:38.747Z,5.95
2023-09-08T00:54:06.424Z,6.05
2023-09-08T00:56:34.016Z,5.70
2023-09-08T00:59:00.781Z,5.78
2023-09-08T01:01:27.393Z,6.03
2023-09-08T01:03:54.064Z,5.20
2023-09-08T01:06:20.878Z,6.55
2023-09-08T01:08:48.008Z,5.72
2023-09-08T01:11:14.800Z,5.68
2023-09-08T01:13:41.453Z,5.57
2023-09-08T01:16:08.927Z,5.50
2023-09-08T01:18:35.974Z,6.03
2023-09-08T01:21:29.871Z,6.43
2023-09-08T01:24:11.638Z,8.02
2023-09-08T01:26:42.214Z,7.38
2023-09-08T01:29:10.460Z,7.07
2023-09-08T01:31:39.120Z,7.40
2023-09-08T01:34:07.939Z,7.20
2023-09-08T01:36:37.788Z,7.40
2023-09-08T01:39:04.582Z,6.88
2023-09-08T01:41:33.278Z,7.57
2023-09-08T01:44:01.128Z,6.72
2023-09-08T01:46:27.735Z,6.35
2023-09-08T01:48:54.465Z,6.40
2023-09-08T01:51:21.102Z,6.47
2023-09-08T01:53:47.815Z,6.72
2023-09-08T01:56:14.425Z,6.90
2023-09-08T01:58:41.031Z,6.80
2023-09-08T02:01:07.720Z,6.68
2023-09-08T02:03:35.549Z,6.22
2023-09-08T02:06:02.140Z,6.30
2023-09-08T02:08:28.842Z,6.25
2023-09-08T02:10:55.445Z,5.70
2023-09-08T02:13:23.152Z,6.68
2023-09-08T02:15:49.942Z,6.53
2023-09-08T02:18:16.647Z,5.55
2023-09-08T02:20:43.339Z,6.47
2023-09-08T02:23:10.110Z,6.65
2023-09-08T02:25:36.725Z,6.10
2023-09-08T02:28:03.699Z,6.38
2023-09-08T02:30:30.340Z,6.20
2023-09-08T02:32:57.657Z,6.07
2023-09-08T02:35:25.675Z,6.60
2023-09-08T02:37:54.296Z,6.60
2023-09-08T02:40:21.790Z,6.10
2023-09-08T02:42:49.789Z,6.68
2023-09-08T02:45:16.742Z,6.63
2023-09-08T02:47:43.576Z,6.30
2023-09-08T02:50:11.442Z,6.93
2023-09-08T02:52:38.144Z,6.72
2023-09-08T02:55:05.106Z,6.65
2023-09-08T02:57:31.699Z,6.80
2023-09-08T02:59:58.370Z,6.47
2023-09-08T03:02:27.937Z,6.30
2023-09-08T03:04:55.558Z,6.45
2023-09-08T03:07:22.302Z,6.45
2023-09-08T03:09:49.153Z,6.22
2023-09-08T03:12:16.042Z,6.30
2023-09-08T03:14:42.716Z,6.30
2023-09-08T03:17:09.737Z,5.70
2023-09-08T03:19:36.456Z,5.95
2023-09-08T03:22:03.355Z,6.18
2023-09-08T03:24:30.152Z,6.28
2023-09-08T03:27:00.086Z,6.07
2023-09-08T03:29:28.994Z,6.60
2023-09-08T03:31:55.746Z,6.43
2023-09-08T03:34:23.635Z,6.10
2023-09-08T03:36:50.553Z,6.28
2023-09-08T03:39:17.471Z,6.90
2023-09-08T03:41:44.094Z,6.82
2023-09-08T03:44:11.298Z,5.70
2023-09-08T03:46:38.105Z,5.90
2023-09-08T03:49:05.301Z,6.25
2023-09-08T03:51:31.969Z,6.63
2023-09-08T03:53:58.638Z,6.68
2023-09-08T03:56:25.299Z,7.00
2023-09-08T03:58:53.112Z,6.60
2023-09-08T04:01:19.965Z,6.95
2023-09-08T04:03:47.327Z,7.30
2023-09-08T04:06:13.962Z,7.15
2023-09-08T04:08:40.982Z,7.35
2023-09-08T04:11:07.530Z,6.60
2023-09-08T04:13:34.421Z,5.85
2023-09-08T04:16:01.312Z,6.45
2023-09-08T04:18:29.001Z,6.47
2023-09-08T04:20:55.922Z,5.95
2023-09-08T04:23:23.537Z,6.40
2023-09-08T04:25:50.491Z,6.82
2023-09-08T04:28:17.142Z,7.05
2023-09-08T04:30:43.873Z,7.07
2023-09-08T04:33:10.691Z,6.72
2023-09-08T04:35:37.753Z,6.47
2023-09-08T04:38:05.264Z,7.05
2023-09-08T04:40:31.974Z,6.60
2023-09-08T04:42:58.634Z,7.05
2023-09-08T04:45:25.348Z,7.43
2023-09-08T04:47:52.252Z,6.93
2023-09-08T04:50:20.332Z,7.20
2023-09-08T04:52:47.230Z,7.32
2023-09-08T04:55:14.288Z,8.13
2023-09-08T04:57:41.133Z,6.80
2023-09-08T05:00:09.203Z,7.90
2023-09-08T05:02:35.903Z,7.53
2023-09-08T05:05:04.136Z,7.70
2023-09-08T05:07:32.044Z,7.78
2023-09-08T05:09:59.025Z,7.75
2023-09-08T05:12:29.716Z,7.82
2023-09-08T05:15:01.078Z,7.70
2023-09-08T05:17:28.112Z,7.40
2023-09-08T05:19:54.789Z,7.35
2023-09-08T05:22:21.711Z,6.93
2023-09-08T05:24:48.618Z,7.72
2023-09-08T05:27:15.353Z,8.15
2023-09-08T05:29:41.944Z,7.72
2023-09-08T05:32:08.524Z,7.68
2023-09-08T05:34:35.413Z,7.32
2023-09-08T05:37:02.115Z,7.60
2023-09-08T05:39:28.801Z,8.07
2023-09-08T05:41:56.071Z,8.05
2023-09-08T05:44:22.846Z,7.72
2023-09-08T05:46:49.981Z,8.23
2023-09-08T05:49:16.668Z,7.72
2023-09-08T05:51:43.358Z,7.65
2023-09-08T05:54:10.198Z,7.90
2023-09-08T05:56:38.456Z,7.43
2023-09-08T05:59:05.476Z,7.43
2023-09-08T06:01:33.813Z,7.43
2023-09-08T06:04:02.205Z,7.60
2023-09-08T06:06:30.539Z,7.75
2023-09-08T06:08:58.960Z,7.22
2023-09-08T06:11:26.923Z,7.77
2023-09-08T06:13:57.033Z,7.15
2023-09-08T06:16:24.004Z,7.63
2023-09-08T06:18:50.649Z,7.35
2023-09-08T06:23:46.690Z,7.32
2023-09-08T06:26:14.242Z,6.97
2023-09-08T06:28:42.924Z,6.40
2023-09-08T06:31:09.761Z,6.85
2023-09-08T06:33:38.105Z,6.93
2023-09-08T06:36:05.632Z,6.60
2023-09-08T06:38:32.942Z,6.20
2023-09-08T06:41:01.944Z,6.70
2023-09-08T06:43:29.017Z,6.70
2023-09-08T06:46:03.851Z,6.57
2023-09-08T06:48:30.690Z,6.72
2023-09-08T06:50:57.680Z,6.45
2023-09-08T06:53:25.676Z,6.15
2023-09-08T06:55:52.546Z,6.60
2023-09-08T06:58:19.775Z,6.10
2023-09-08T07:00:46.968Z,6.05
2023-09-08T07:03:14.293Z,6.20
2023-09-08T07:05:41.614Z,6.90
2023-09-08T07:08:08.739Z,6.18
2023-09-08T07:10:35.421Z,6.50
2023-09-08T07:13:02.548Z,5.45
2023-09-08T07:15:29.217Z,5.88
2023-09-08T07:17:58.404Z,5.97
2023-09-08T07:20:25.483Z,5.90
2023-09-08T07:22:52.917Z,5.65
2023-09-08T07:25:20.600Z,6.13
2023-09-08T07:27:47.692Z,6.18
2023-09-08T07:30:21.468Z,5.82
2023-09-08T07:32:48.182Z,6.00
2023-09-08T07:35:16.816Z,5.78
2023-09-08T07:37:45.499Z,5.93
2023-09-08T07:40:13.620Z,5.30
2023-09-08T07:42:40.819Z,6.22
2023-09-08T07:45:10.332Z,5.60
2023-09-08T07:47:39.509Z,6.30
2023-09-08T07:52:53.494Z,5.40
2023-09-08T07:55:20.335Z,5.72
2023-09-08T07:57:47.374Z,5.95
2023-09-08T08:00:17.656Z,6.15
2023-09-08T08:02:50.704Z,5.78
2023-09-08T08:05:18.002Z,5.45
2023-09-08T08:07:45.460Z,5.57
2023-09-08T08:10:15.103Z,5.85
2023-09-08T08:12:43.248Z,6.13
2023-09-08T08:15:11.519Z,6.15
2023-09-08T08:17:38.842Z,5.60
2023-09-08T08:20:12.038Z,6.05
2023-09-08T08:22:38.829Z,6.60
2023-09-08T08:25:06.149Z,5.95
2023-09-08T08:27:32.846Z,5.90
2023-09-08T08:30:01.874Z,7.78
2023-09-08T08:32:30.183Z,6.55
2023-09-08T08:34:57.777Z,5.78
2023-09-08T08:37:24.634Z,5.80
2023-09-08T08:39:51.357Z,5.18
2023-09-08T08:42:18.558Z,5.78
2023-09-08T08:44:46.728Z,4.57
2023-09-08T08:47:17.041Z,5.10
2023-09-08T08:49:49.392Z,5.25
2023-09-08T08:52:16.352Z,5.10
2023-09-08T08:54:43.882Z,5.05
2023-09-08T08:57:12.235Z,5.28
2023-09-08T08:59:39.087Z,4.90
2023-09-08T09:02:06.588Z,4.68
2023-09-08T09:04:34.164Z,5.35
2023-09-08T09:07:00.972Z,5.05
2023-09-08T09:09:27.608Z,4.65
2023-09-08T09:11:54.540Z,4.65
2023-09-08T09:14:21.273Z,4.65
2023-09-08T09:16:48.908Z,4.90
2023-09-08T09:19:28.407Z,4.13
2023-09-08T09:21:56.430Z,4.57
2023-09-08T09:24:34.649Z,4.32
2023-09-08T09:27:02.306Z,4.77
2023-09-08T09:29:29.561Z,4.80
2023-09-08T09:32:05.229Z,5.07
2023-09-08T09:34:31.878Z,4.85
2023-09-08T09:36:58.551Z,4.80
2023-09-08T09:39:26.489Z,4.28
2023-09-08T09:41:57.596Z,5.13
2023-09-08T09:44:25.229Z,4.95
2023-09-08T09:46:55.062Z,4.80
2023-09-08T09:49:21.894Z,4.05
2023-09-08T09:51:50.432Z,5.18
2023-09-08T09:54:17.768Z,4.53
2023-09-08T09:56:46.597Z,4.45
2023-09-08T09:59:14.694Z,4.18
2023-09-08T10:01:43.568Z,4.53
2023-09-08T10:04:11.586Z,4.60
2023-09-08T10:06:40.230Z,3.95
2023-09-08T10:09:14.387Z,4.25
2023-09-08T10:11:49.733Z,4.50
2023-09-08T10:14:18.813Z,4.13
2023-09-08T10:16:53.573Z,4.75
2023-09-08T10:19:22.811Z,4.20
2023-09-08T10:24:39.895Z,4.63
2023-09-08T10:27:11.150Z,4.25
2023-09-08T10:29:38.720Z,4.30
2023-09-08T10:32:07.869Z,4.13
2023-09-08T10:34:36.513Z,4.30
2023-09-08T10:37:04.367Z,3.70
2023-09-08T10:39:41.025Z,4.72
2023-09-08T10:42:20.276Z,4.60
2023-09-08T10:44:53.142Z,4.18
2023-09-08T10:47:23.331Z,4.43
2023-09-08T10:49:55.582Z,4.30
2023-09-08T10:52:25.814Z,3.67
2023-09-08T10:54:54.290Z,4.38
2023-09-08T10:57:25.586Z,4.43
2023-09-08T10:59:55.154Z,4.00
2023-09-08T11:02:35.975Z,3.85
2023-09-08T11:05:05.897Z,4.20
2023-09-08T11:07:36.085Z,4.13
2023-09-08T11:10:02.946Z,4.47
2023-09-08T11:12:29.910Z,4.18
2023-09-08T11:14:56.649Z,4.80
2023-09-08T11:17:27.221Z,4.22
2023-09-08T11:19:53.942Z,4.43
2023-09-08T11:22:24.974Z,4.57
2023-09-08T11:24:53.625Z,3.70
2023-09-08T11:27:22.240Z,4.10
2023-09-08T11:29:48.940Z,4.05
2023-09-08T11:32:15.641Z,4.35
2023-09-08T11:34:42.977Z,3.75
2023-09-08T11:37:14.219Z,4.43
2023-09-08T11:39:41.877Z,3.50
2023-09-08T11:42:09.963Z,3.80
2023-09-08T11:44:37.388Z,4.00
2023-09-08T11:47:05.835Z,3.67
2023-09-08T11:52:07.156Z,4.43
2023-09-08T11:54:35.798Z,4.78
2023-09-08T11:57:05.338Z,4.50
2023-09-08T11:59:34.028Z,4.43
2023-09-08T12:04:28.386Z,3.60
2023-09-08T12:06:57.071Z,4.20
2023-09-08T12:09:24.922Z,3.85
2023-09-08T12:11:52.170Z,3.95
2023-09-08T12:14:19.075Z,3.40
2023-09-08T12:16:45.746Z,3.85
2023-09-08T12:19:38.516Z,3.70
2023-09-08T12:22:08.467Z,3.30
2023-09-08T12:24:54.048Z,3.50
2023-09-08T12:27:21.079Z,3.22
2023-09-08T12:30:01.936Z,4.03
2023-09-08T12:32:31.343Z,4.20
2023-09-08T12:34:59.414Z,3.92
2023-09-08T12:37:30.429Z,3.03
2023-09-08T12:39:57.827Z,3.33
2023-09-08T12:42:30.260Z,3.10
2023-09-08T12:44:57.667Z,3.15
2023-09-08T12:47:24.214Z,3.40
2023-09-08T12:49:50.896Z,3.33
2023-09-08T12:52:17.537Z,3.33
2023-09-08T12:54:56.552Z,3.00
2023-09-08T12:57:25.418Z,3.53
2023-09-08T12:59:52.923Z,3.60
2023-09-08T13:02:19.539Z,3.38
2023-09-08T13:04:49.818Z,3.55
2023-09-08T13:07:17.814Z,3.00
2023-09-08T13:10:00.837Z,3.45
2023-09-08T13:12:38.364Z,3.10
2023-09-08T13:15:08.691Z,3.28
2023-09-08T13:17:35.354Z,3.28
2023-09-08T13:20:03.342Z,3.33
2023-09-08T13:22:30.133Z,3.30
2023-09-08T13:24:56.773Z,3.72
2023-09-08T13:27:23.396Z,3.20
2023-09-08T13:29:50.037Z,3.55
2023-09-08T13:32:17.014Z,3.35
2023-09-08T13:34:44.769Z,3.72
2023-09-08T13:37:11.548Z,3.60
2023-09-08T13:39:38.417Z,3.53
2023-09-08T13:42:05.866Z,3.65
2023-09-08T13:44:32.566Z,3.70
2023-09-08T13:46:59.409Z,3.88
2023-09-08T13:49:27.735Z,3.38
2023-09-08T13:51:57.121Z,3.40
2023-09-08T13:54:25.254Z,3.80
2023-09-08T13:57:20.486Z,3.42
2023-09-08T14:00:03.666Z,3.63
2023-09-08T14:02:43.360Z,3.60
2023-09-08T14:07:46.735Z,3.40
2023-09-08T14:10:27.177Z,3.67
2023-09-08T14:12:56.890Z,3.70
2023-09-08T14:15:23.578Z,3.35
2023-09-08T14:17:50.555Z,3.55
2023-09-08T14:20:17.337Z,3.38
2023-09-08T14:22:44.100Z,3.38
2023-09-08T14:25:14.893Z,3.47
2023-09-08T14:27:41.505Z,3.67
2023-09-08T14:30:08.523Z,3.80
2023-09-08T14:32:35.105Z,3.58
2023-09-08T14:35:02.655Z,3.80
2023-09-08T14:37:29.635Z,3.72
2023-09-08T14:39:56.241Z,3.55
2023-09-08T14:42:22.831Z,3.60
2023-09-08T14:44:52.527Z,3.55
2023-09-08T14:47:34.808Z,3.70
2023-09-08T14:50:01.839Z,3.70
2023-09-08T14:52:28.335Z,3.75
2023-09-08T14:54:54.945Z,3.90
2023-09-08T14:57:21.555Z,3.72
2023-09-08T14:59:48.180Z,3.50
2023-09-08T15:02:14.996Z,3.53
2023-09-08T15:04:41.857Z,3.80
2023-09-08T15:07:09.877Z,4.10
2023-09-08T15:09:36.943Z,3.95
2023-09-08T15:12:03.767Z,3.58
2023-09-08T15:14:30.350Z,3.60
2023-09-08T15:16:57.001Z,3.53
2023-09-08T15:19:23.581Z,3.65
2023-09-08T15:21:50.143Z,3.33
2023-09-08T15:24:18.768Z,3.60
2023-09-08T15:29:16.794Z,3.77
2023-09-08T15:31:44.122Z,3.83
2023-09-08T15:34:12.661Z,3.78
2023-09-08T15:36:39.202Z,3.33
2023-09-08T15:39:24.579Z,3.38
2023-09-08T15:42:15.338Z,4.10
2023-09-08T15:44:50.921Z,3.63
2023-09-08T15:47:20.181Z,3.70
2023-09-08T15:49:53.543Z,4.13
2023-09-08T15:52:21.503Z,4.15
2023-09-08T15:54:48.170Z,3.90
2023-09-08T15:57:15.899Z,3.53
2023-09-08T15:59:42.672Z,3.65
2023-09-08T16:02:09.387Z,3.95
2023-09-08T16:04:36.215Z,3.80
2023-09-08T16:07:05.811Z,3.58
2023-09-08T16:09:32.409Z,3.53
2023-09-08T16:11:59.092Z,3.75
2023-09-08T16:14:25.695Z,3.95
2023-09-08T16:16:52.840Z,3.67
2023-09-08T16:19:20.110Z,4.00
2023-09-08T16:21:46.695Z,4.05
2023-09-08T16:24:13.334Z,4.07
2023-09-08T16:26:40.003Z,4.38
2023-09-08T16:29:06.730Z,4.10
2023-09-08T16:31:33.477Z,3.70
2023-09-08T16:34:00.087Z,4.13
2023-09-08T16:36:26.723Z,4.35
2023-09-08T16:38:53.291Z,4.03
2023-09-08T16:41:19.840Z,4.10
2023-09-08T16:43:46.706Z,4.05
2023-09-08T16:46:15.175Z,3.78
2023-09-08T16:48:42.062Z,4.50
2023-09-08T16:51:09.093Z,4.50
2023-09-08T16:53:35.905Z,4.30
2023-09-08T16:56:09.501Z,4.75
2023-09-08T16:58:37.138Z,4.43
2023-09-08T17:01:06.665Z,4.22
2023-09-08T17:03:33.527Z,4.65
2023-09-08T17:06:00.295Z,4.75
2023-09-08T17:08:51.749Z,4.15
2023-09-08T17:11:19.413Z,4.15
2023-09-08T17:13:45.979Z,4.13
2023-09-08T17:16:13.324Z,4.25
2023-09-08T17:18:40.008Z,3.90
2023-09-08T17:21:15.180Z,4.45
2023-09-08T17:23:42.151Z,5.22
2023-09-08T17:26:09.210Z,4.72
2023-09-08T17:28:36.117Z,4.22
2023-09-08T17:31:04.890Z,4.60
2023-09-08T17:33:31.473Z,6.38
2023-09-08T17:35:58.175Z,10.43
2023-09-08T17:38:30.127Z,10.48
2023-09-08T17:40:58.089Z,10.52
2023-09-08T17:45:52.411Z,8.73
2023-09-08T17:48:19.224Z,8.40
2023-09-08T17:50:45.797Z,7.22
2023-09-08T17:53:12.380Z,6.47
2023-09-08T17:55:38.952Z,7.05
2023-09-08T17:58:05.543Z,6.10
2023-09-08T18:00:32.165Z,5.95
2023-09-08T18:02:58.838Z,6.07
2023-09-08T18:05:26.450Z,6.63
2023-09-08T18:07:53.027Z,5.90
2023-09-08T18:10:19.841Z,6.10
2023-09-08T18:12:46.631Z,5.15
2023-09-08T18:15:13.271Z,5.28
2023-09-08T18:17:41.078Z,5.93
2023-09-08T18:20:08.267Z,5.75
2023-09-08T18:22:35.120Z,5.93
2023-09-08T18:25:01.917Z,7.07
2023-09-08T18:27:30.702Z,7.78
2023-09-08T18:29:57.480Z,8.52
2023-09-08T18:32:24.773Z,8.38
2023-09-08T18:34:53.668Z,8.02
2023-09-08T18:37:21.476Z,8.50
2023-09-08T18:39:48.083Z,8.38
2023-09-08T18:42:14.648Z,7.25
2023-09-08T18:44:43.486Z,7.82
2023-09-08T18:49:37.594Z,7.70
2023-09-08T18:52:04.605Z,7.30
2023-09-08T18:54:33.235Z,7.30
2023-09-08T18:57:00.043Z,6.93
2023-09-08T18:59:26.985Z,7.18
2023-09-08T19:01:55.209Z,6.93
2023-09-08T19:04:22.320Z,7.27
2023-09-08T19:06:49.182Z,6.55
2023-09-08T19:09:15.968Z,6.47
2023-09-08T19:11:42.642Z,6.40
2023-09-08T19:14:09.401Z,6.20
2023-09-08T19:16:36.273Z,5.70
2023-09-08T19:19:02.858Z,5.82
2023-09-08T19:21:29.530Z,5.90
2023-09-08T19:23:56.044Z,6.53
2023-09-08T19:26:22.641Z,6.88
2023-09-08T19:28:49.185Z,6.60
2023-09-08T19:31:15.807Z,7.35
2023-09-08T19:33:42.557Z,7.03
2023-09-08T19:36:09.149Z,7.15
2023-09-08T19:38:35.764Z,7.40
2023-09-08T19:41:05.982Z,7.28
2023-09-08T19:43:32.735Z,7.78
2023-09-08T19:46:04.677Z,8.23
2023-09-08T19:48:35.320Z,8.68
2023-09-08T19:51:04.241Z,9.85
2023-09-08T19:53:31.396Z,9.63
2023-09-08T19:55:58.778Z,10.35
2023-09-08T19:58:29.339Z,9.90
2023-09-08T20:01:04.790Z,9.40
2023-09-08T20:03:31.725Z,10.00
2023-09-08T20:05:58.576Z,8.98
2023-09-08T20:08:25.208Z,8.90
2023-09-08T20:10:53.438Z,8.43
2023-09-08T20:13:21.148Z,9.05
2023-09-08T20:15:57.977Z,8.25
2023-09-08T20:18:24.741Z,8.43
2023-09-08T20:21:05.676Z,8.07
2023-09-08T20:23:33.591Z,8.05
2023-09-08T20:26:00.630Z,8.77
2023-09-08T20:28:27.293Z,7.60
2023-09-08T20:31:09.545Z,8.18
2023-09-08T20:33:41.022Z,8.57
2023-09-08T20:36:07.622Z,7.60
2023-09-08T20:38:34.476Z,8.38
2023-09-08T20:41:01.347Z,8.30
2023-09-08T20:43:28.006Z,7.40
2023-09-08T20:45:55.180Z,8.38
2023-09-08T20:48:22.872Z,7.68
2023-09-08T20:50:59.333Z,8.20
2023-09-08T20:53:25.888Z,7.72
2023-09-08T20:55:52.470Z,7.78
2023-09-08T20:58:19.095Z,7.70
2023-09-08T21:00:45.756Z,8.25
2023-09-08T21:03:12.538Z,7.82
2023-09-08T21:05:39.376Z,7.60
2023-09-08T21:08:06.699Z,7.05
2023-09-08T21:10:33.462Z,7.97
2023-09-08T21:13:00.022Z,7.38
2023-09-08T21:15:26.584Z,7.28
2023-09-08T21:17:53.278Z,7.50
2023-09-08T21:20:20.403Z,7.95
2023-09-08T21:22:47.038Z,7.90
2023-09-08T21:25:13.932Z,7.95
2023-09-08T21:27:40.615Z,7.90
2023-09-08T21:30:07.788Z,8.45
2023-09-08T21:32:34.549Z,7.97
2023-09-08T21:35:01.319Z,8.00
2023-09-08T21:37:28.285Z,7.63
2023-09-08T21:39:54.895Z,8.63
2023-09-08T21:42:21.483Z,7.95
2023-09-08T21:44:48.046Z,8.18
2023-09-08T21:47:15.800Z,7.75
2023-09-08T21:49:42.470Z,8.60
2023-09-08T21:52:09.108Z,7.97
2023-09-08T21:54:35.716Z,8.05
2023-09-08T21:57:02.296Z,8.90
2023-09-08T21:59:31.392Z,8.93
2023-09-08T22:01:58.515Z,8.80
2023-09-08T22:04:26.373Z,8.93
2023-09-08T22:06:53.862Z,8.60
2023-09-08T22:09:20.737Z,8.80
2023-09-08T22:11:49.873Z,8.45
2023-09-08T22:14:16.653Z,8.93
2023-09-08T22:16:43.340Z,9.75
2023-09-08T22:19:11.517Z,8.85
2023-09-08T22:21:39.358Z,8.38
2023-09-08T22:24:06.380Z,8.73
2023-09-08T22:26:33.122Z,8.77
2023-09-08T22:28:59.679Z,9.18
2023-09-08T22:31:26.380Z,9.40
2023-09-08T22:33:53.184Z,9.52
2023-09-08T22:36:21.061Z,9.25
2023-09-08T22:38:48.447Z,9.85
2023-09-08T22:41:15.098Z,8.73
2023-09-08T22:43:41.736Z,8.93
2023-09-08T22:46:08.819Z,9.55
2023-09-08T22:48:36.241Z,8.38
2023-09-08T22:51:04.904Z,8.88
2023-09-08T22:53:31.768Z,8.55
2023-09-08T22:55:58.517Z,8.68
2023-09-08T22:58:26.364Z,9.02
2023-09-08T23:00:53.131Z,8.65
2023-09-08T23:03:20.151Z,9.07
2023-09-08T23:05:46.760Z,8.88
2023-09-08T23:08:13.361Z,9.60
2023-09-08T23:10:39.956Z,18.30
2023-09-08T23:13:06.523Z,11.98
2023-09-08T23:15:34.290Z,9.85
2023-09-08T23:18:00.996Z,9.05
2023-09-08T23:20:27.771Z,10.23
2023-09-08T23:22:54.429Z,8.93
2023-09-08T23:25:20.964Z,10.63
2023-09-08T23:27:47.555Z,10.50
2023-09-08T23:30:16.247Z,10.15
2023-09-08T23:32:45.597Z,9.88
2023-09-08T23:35:13.299Z,10.50
2023-09-08T23:37:40.052Z,11.05
2023-09-08T23:40:13.565Z,10.98
2023-09-08T23:42:40.615Z,11.48
2023-09-08T23:45:07.570Z,13.30
2023-09-08T23:47:34.495Z,12.45
2023-09-08T23:50:01.309Z,12.00
2023-09-08T23:52:28.582Z,11.82
2023-09-08T23:54:55.320Z,11.60
2023-09-08T23:57:21.989Z,11.05
2023-09-08T23:59:48.726Z,10.80
